sensor_id;sensor_type;location;lat;lon;timestamp;pressure;altitude;pressure_sealevel;temperature;humidity
61742;BME280;47650;49.848;9.620;2023-05-24T00:02:04;100026.03;;;10.38;68.26
61742;BME280;47650;49.848;9.620;2023-05-24T00:04:31;100020.09;;;10.24;69.01
61742;BME280;47650;49.848;9.620;2023-05-24T00:06:57;100049.25;;;10.45;69.37
61742;BME280;47650;49.848;9.620;2023-05-24T00:09:23;100050.03;;;10.36;70.20
61742;BME280;47650;49.848;9.620;2023-05-24T00:11:48;100052.03;;;10.44;70.17
61742;BME280;47650;49.848;9.620;2023-05-24T00:14:15;99971.44;;;9.94;70.13
61742;BME280;47650;49.848;9.620;2023-05-24T00:16:41;100049.47;;;10.32;71.17
61742;BME280;47650;49.848;9.620;2023-05-24T00:19:06;100043.06;;;10.35;70.58
61742;BME280;47650;49.848;9.620;2023-05-24T00:21:32;100044.22;;;10.42;70.24
61742;BME280;47650;49.848;9.620;2023-05-24T00:24:00;100053.13;;;10.41;69.68
61742;BME280;47650;49.848;9.620;2023-05-24T00:26:26;100032.13;;;10.28;69.47
61742;BME280;47650;49.848;9.620;2023-05-24T00:28:52;100045.28;;;10.40;69.50
61742;BME280;47650;49.848;9.620;2023-05-24T00:31:25;100047.13;;;10.39;69.13
61742;BME280;47650;49.848;9.620;2023-05-24T00:33:51;100024.44;;;10.25;68.61
61742;BME280;47650;49.848;9.620;2023-05-24T00:36:16;99936.75;;;9.67;68.92
61742;BME280;47650;49.848;9.620;2023-05-24T00:38:45;100044.84;;;10.34;70.05
61742;BME280;47650;49.848;9.620;2023-05-24T00:41:10;100045.84;;;10.33;69.89
61742;BME280;47650;49.848;9.620;2023-05-24T00:43:35;100044.72;;;10.36;69.97
61742;BME280;47650;49.848;9.620;2023-05-24T00:46:15;100048.94;;;10.39;70.13
61742;BME280;47650;49.848;9.620;2023-05-24T00:48:43;99950.09;;;9.86;70.44
61742;BME280;47650;49.848;9.620;2023-05-24T00:51:10;100011.88;;;10.27;70.26
61742;BME280;47650;49.848;9.620;2023-05-24T00:53:36;100015.31;;;10.39;69.91
61742;BME280;47650;49.848;9.620;2023-05-24T00:56:02;99962.59;;;10.15;69.79
61742;BME280;47650;49.848;9.620;2023-05-24T00:58:29;100000.81;;;10.43;69.82
61742;BME280;47650;49.848;9.620;2023-05-24T01:00:58;100026.41;;;10.64;69.80
61742;BME280;47650;49.848;9.620;2023-05-24T01:03:24;99999.88;;;10.54;69.82
61742;BME280;47650;49.848;9.620;2023-05-24T01:05:52;99949.78;;;10.20;69.91
61742;BME280;47650;49.848;9.620;2023-05-24T01:08:33;100011.91;;;10.78;70.37
61742;BME280;47650;49.848;9.620;2023-05-24T01:17:32;100021.72;;;10.87;69.68
61742;BME280;47650;49.848;9.620;2023-05-24T01:20:07;100028.44;;;10.91;69.46
61742;BME280;47650;49.848;9.620;2023-05-24T01:28:38;100031.38;;;10.98;69.74
61742;BME280;47650;49.848;9.620;2023-05-24T01:31:09;100022.72;;;10.96;69.30
61742;BME280;47650;49.848;9.620;2023-05-24T01:33:46;100021.44;;;10.90;69.44
61742;BME280;47650;49.848;9.620;2023-05-24T01:36:11;100017.13;;;10.89;68.94
61742;BME280;47650;49.848;9.620;2023-05-24T01:38:38;99961.34;;;10.50;68.82
61742;BME280;47650;49.848;9.620;2023-05-24T01:41:14;99987.50;;;10.64;68.84
61742;BME280;47650;49.848;9.620;2023-05-24T01:44:06;99928.88;;;10.17;68.59
61742;BME280;47650;49.848;9.620;2023-05-24T01:46:37;100003.78;;;10.60;69.45
61742;BME280;47650;49.848;9.620;2023-05-24T01:49:08;100045.69;;;10.76;69.31
61742;BME280;47650;49.848;9.620;2023-05-24T01:51:43;100039.00;;;10.71;69.08
61742;BME280;47650;49.848;9.620;2023-05-24T01:54:12;99947.84;;;10.12;68.98
61742;BME280;47650;49.848;9.620;2023-05-24T01:56:40;100023.88;;;10.52;69.15
61742;BME280;47650;49.848;9.620;2023-05-24T01:59:06;100042.31;;;10.54;69.23
61742;BME280;47650;49.848;9.620;2023-05-24T02:01:32;100040.19;;;10.48;69.54
61742;BME280;47650;49.848;9.620;2023-05-24T02:03:58;100038.66;;;10.45;69.64
61742;BME280;47650;49.848;9.620;2023-05-24T02:06:25;100034.69;;;10.40;69.68
61742;BME280;47650;49.848;9.620;2023-05-24T02:08:51;100020.53;;;10.29;69.70
61742;BME280;47650;49.848;9.620;2023-05-24T02:11:17;99984.34;;;10.09;70.11
61742;BME280;47650;49.848;9.620;2023-05-24T02:13:43;100036.91;;;10.34;70.20
61742;BME280;47650;49.848;9.620;2023-05-24T02:16:11;99997.72;;;10.07;69.96
61742;BME280;47650;49.848;9.620;2023-05-24T02:18:36;100035.47;;;10.30;70.29
61742;BME280;47650;49.848;9.620;2023-05-24T02:21:02;100035.47;;;10.30;70.41
61742;BME280;47650;49.848;9.620;2023-05-24T02:23:27;100035.00;;;10.37;70.26
61742;BME280;47650;49.848;9.620;2023-05-24T02:25:54;100037.34;;;10.40;70.06
61742;BME280;47650;49.848;9.620;2023-05-24T02:28:22;100040.28;;;10.37;70.41
61742;BME280;47650;49.848;9.620;2023-05-24T02:30:47;100042.38;;;10.43;70.08
61742;BME280;47650;49.848;9.620;2023-05-24T02:33:14;100044.66;;;10.26;71.42
61742;BME280;47650;49.848;9.620;2023-05-24T02:35:39;100044.78;;;10.46;70.51
61742;BME280;47650;49.848;9.620;2023-05-24T02:38:05;100046.47;;;10.47;70.78
61742;BME280;47650;49.848;9.620;2023-05-24T02:40:31;99964.81;;;10.10;70.02
61742;BME280;47650;49.848;9.620;2023-05-24T02:42:56;100035.47;;;10.61;69.81
61742;BME280;47650;49.848;9.620;2023-05-24T02:45:21;100008.78;;;10.53;69.46
61742;BME280;47650;49.848;9.620;2023-05-24T02:47:47;99914.56;;;9.89;69.04
61742;BME280;47650;49.848;9.620;2023-05-24T02:50:12;100033.44;;;10.75;69.22
61742;BME280;47650;49.848;9.620;2023-05-24T02:52:38;100027.44;;;10.82;68.80
61742;BME280;47650;49.848;9.620;2023-05-24T02:55:04;100030.38;;;10.89;68.43
61742;BME280;47650;49.848;9.620;2023-05-24T02:57:30;99989.72;;;10.69;68.31
61742;BME280;47650;49.848;9.620;2023-05-24T02:59:58;100033.06;;;10.99;68.07
61742;BME280;47650;49.848;9.620;2023-05-24T03:02:26;100010.81;;;10.90;67.91
61742;BME280;47650;49.848;9.620;2023-05-24T03:04:54;100034.97;;;10.97;67.77
61742;BME280;47650;49.848;9.620;2023-05-24T03:07:19;100013.63;;;10.88;66.76
61742;BME280;47650;49.848;9.620;2023-05-24T03:09:47;100035.28;;;11.03;66.83
61742;BME280;47650;49.848;9.620;2023-05-24T03:12:12;100027.59;;;11.00;67.35
61742;BME280;47650;49.848;9.620;2023-05-24T03:14:38;100009.31;;;10.97;66.24
61742;BME280;47650;49.848;9.620;2023-05-24T03:17:03;100041.03;;;11.18;66.55
61742;BME280;47650;49.848;9.620;2023-05-24T03:19:29;100031.66;;;11.14;65.82
61742;BME280;47650;49.848;9.620;2023-05-24T03:21:55;100026.75;;;11.19;65.59
61742;BME280;47650;49.848;9.620;2023-05-24T03:24:22;99932.91;;;10.71;65.75
61742;BME280;47650;49.848;9.620;2023-05-24T03:26:48;99996.59;;;11.10;66.12
61742;BME280;47650;49.848;9.620;2023-05-24T03:29:13;100020.50;;;11.30;66.06
61742;BME280;47650;49.848;9.620;2023-05-24T03:31:39;100025.38;;;11.35;65.87
61742;BME280;47650;49.848;9.620;2023-05-24T03:34:07;100028.16;;;11.33;65.14
61742;BME280;47650;49.848;9.620;2023-05-24T03:36:32;100031.25;;;11.38;64.22
61742;BME280;47650;49.848;9.620;2023-05-24T03:39:09;100028.19;;;11.43;64.54
61742;BME280;47650;49.848;9.620;2023-05-24T03:41:34;100019.25;;;11.34;64.89
61742;BME280;47650;49.848;9.620;2023-05-24T03:43:59;100025.66;;;11.41;64.61
61742;BME280;47650;49.848;9.620;2023-05-24T03:46:28;99996.06;;;11.26;64.41
61742;BME280;47650;49.848;9.620;2023-05-24T03:48:56;100035.44;;;11.51;63.71
61742;BME280;47650;49.848;9.620;2023-05-24T03:51:21;100037.81;;;11.54;63.47
61742;BME280;47650;49.848;9.620;2023-05-24T03:53:53;100033.78;;;11.59;63.25
61742;BME280;47650;49.848;9.620;2023-05-24T03:56:19;99977.63;;;11.25;63.45
61742;BME280;47650;49.848;9.620;2023-05-24T03:58:45;99929.72;;;10.97;63.36
61742;BME280;47650;49.848;9.620;2023-05-24T04:01:12;99965.59;;;11.21;62.94
61742;BME280;47650;49.848;9.620;2023-05-24T04:03:37;99826.03;;;10.42;62.49
61742;BME280;47650;49.848;9.620;2023-05-24T04:06:03;100039.59;;;11.82;62.77
61742;BME280;47650;49.848;9.620;2023-05-24T04:08:28;100044.06;;;11.92;62.67
61742;BME280;47650;49.848;9.620;2023-05-24T04:10:59;100050.50;;;11.79;62.57
61742;BME280;47650;49.848;9.620;2023-05-24T04:13:25;100033.69;;;11.89;62.89
61742;BME280;47650;49.848;9.620;2023-05-24T04:15:51;100007.44;;;11.85;62.71
61742;BME280;47650;49.848;9.620;2023-05-24T04:18:17;100012.72;;;11.95;62.16
61742;BME280;47650;49.848;9.620;2023-05-24T04:20:44;100037.56;;;12.23;62.24
61742;BME280;47650;49.848;9.620;2023-05-24T04:23:12;99972.72;;;11.97;61.75
61742;BME280;47650;49.848;9.620;2023-05-24T04:25:38;100034.13;;;12.41;61.02
61742;BME280;47650;49.848;9.620;2023-05-24T04:28:05;99974.97;;;12.01;61.38
61742;BME280;47650;49.848;9.620;2023-05-24T04:30:31;100035.09;;;12.40;60.14
61742;BME280;47650;49.848;9.620;2023-05-24T04:32:57;100028.16;;;12.29;59.34
61742;BME280;47650;49.848;9.620;2023-05-24T04:35:23;100010.38;;;12.30;59.55
61742;BME280;47650;49.848;9.620;2023-05-24T04:37:55;100035.50;;;12.45;58.94
61742;BME280;47650;49.848;9.620;2023-05-24T04:40:21;100037.66;;;12.59;58.39
61742;BME280;47650;49.848;9.620;2023-05-24T04:42:49;100038.22;;;12.63;58.51
61742;BME280;47650;49.848;9.620;2023-05-24T04:45:14;100042.50;;;12.74;58.32
61742;BME280;47650;49.848;9.620;2023-05-24T04:47:40;100041.47;;;12.85;58.05
61742;BME280;47650;49.848;9.620;2023-05-24T04:50:07;100010.72;;;12.72;57.89
61742;BME280;47650;49.848;9.620;2023-05-24T04:52:33;100043.69;;;12.89;56.35
61742;BME280;47650;49.848;9.620;2023-05-24T04:55:02;99981.41;;;12.54;57.41
61742;BME280;47650;49.848;9.620;2023-05-24T04:57:27;99970.97;;;12.71;57.43
61742;BME280;47650;49.848;9.620;2023-05-24T04:59:53;100047.06;;;13.27;56.48
61742;BME280;47650;49.848;9.620;2023-05-24T05:02:18;99970.81;;;12.90;56.44
61742;BME280;47650;49.848;9.620;2023-05-24T05:04:44;100022.34;;;13.35;55.12
61742;BME280;47650;49.848;9.620;2023-05-24T05:07:10;100060.53;;;13.62;55.16
61742;BME280;47650;49.848;9.620;2023-05-24T05:09:35;100061.44;;;13.70;54.24
61742;BME280;47650;49.848;9.620;2023-05-24T05:12:01;100048.69;;;13.82;54.02
61742;BME280;47650;49.848;9.620;2023-05-24T05:14:27;100075.06;;;13.31;53.71
61742;BME280;47650;49.848;9.620;2023-05-24T05:16:53;100024.13;;;12.81;55.27
61742;BME280;47650;49.848;9.620;2023-05-24T05:19:19;100032.31;;;12.87;54.53
61742;BME280;47650;49.848;9.620;2023-05-24T05:21:45;100051.69;;;13.61;53.87
61742;BME280;47650;49.848;9.620;2023-05-24T05:24:10;100077.44;;;13.70;54.43
61742;BME280;47650;49.848;9.620;2023-05-24T05:26:38;100070.00;;;14.00;53.66
61742;BME280;47650;49.848;9.620;2023-05-24T05:29:03;100071.69;;;14.36;52.39
61742;BME280;47650;49.848;9.620;2023-05-24T05:31:30;100072.16;;;13.79;53.10
61742;BME280;47650;49.848;9.620;2023-05-24T05:33:55;100063.41;;;14.13;52.37
61742;BME280;47650;49.848;9.620;2023-05-24T05:36:21;100082.53;;;13.46;53.52
61742;BME280;47650;49.848;9.620;2023-05-24T05:38:47;100077.25;;;13.72;52.81
61742;BME280;47650;49.848;9.620;2023-05-24T05:41:13;99985.72;;;13.19;52.40
61742;BME280;47650;49.848;9.620;2023-05-24T05:43:40;100086.03;;;13.64;52.92
61742;BME280;47650;49.848;9.620;2023-05-24T05:46:06;100049.63;;;13.19;52.76
61742;BME280;47650;49.848;9.620;2023-05-24T05:48:31;100090.91;;;13.33;52.05
61742;BME280;47650;49.848;9.620;2023-05-24T05:50:58;100095.16;;;13.44;52.06
61742;BME280;47650;49.848;9.620;2023-05-24T05:53:26;100045.25;;;12.82;52.66
61742;BME280;47650;49.848;9.620;2023-05-24T05:55:54;99997.13;;;12.75;52.84
61742;BME280;47650;49.848;9.620;2023-05-24T05:58:21;100085.88;;;13.66;52.58
61742;BME280;47650;49.848;9.620;2023-05-24T06:00:56;100088.81;;;12.81;53.39
61742;BME280;47650;49.848;9.620;2023-05-24T06:03:21;100066.19;;;12.95;53.62
61742;BME280;47650;49.848;9.620;2023-05-24T06:05:48;100087.09;;;13.08;53.49
61742;BME280;47650;49.848;9.620;2023-05-24T06:08:13;100070.16;;;13.09;53.59
61742;BME280;47650;49.848;9.620;2023-05-24T06:10:44;100088.09;;;13.34;53.26
61742;BME280;47650;49.848;9.620;2023-05-24T06:13:10;100092.75;;;13.32;53.89
61742;BME280;47650;49.848;9.620;2023-05-24T06:15:36;100093.81;;;13.40;54.06
61742;BME280;47650;49.848;9.620;2023-05-24T06:18:11;100097.16;;;13.42;53.61
61742;BME280;47650;49.848;9.620;2023-05-24T06:20:37;100091.94;;;13.22;52.77
61742;BME280;47650;49.848;9.620;2023-05-24T06:23:03;100084.97;;;13.11;53.59
61742;BME280;47650;49.848;9.620;2023-05-24T06:25:29;100022.19;;;12.73;52.94
61742;BME280;47650;49.848;9.620;2023-05-24T06:27:55;100092.63;;;13.24;53.11
61742;BME280;47650;49.848;9.620;2023-05-24T06:30:22;100087.50;;;13.13;52.25
61742;BME280;47650;49.848;9.620;2023-05-24T06:32:50;100080.22;;;13.15;52.93
61742;BME280;47650;49.848;9.620;2023-05-24T06:35:15;100089.91;;;13.06;53.81
61742;BME280;47650;49.848;9.620;2023-05-24T06:37:43;100096.63;;;13.38;52.28
61742;BME280;47650;49.848;9.620;2023-05-24T06:40:09;100069.59;;;13.51;51.92
61742;BME280;47650;49.848;9.620;2023-05-24T06:42:38;100040.31;;;12.87;52.89
61742;BME280;47650;49.848;9.620;2023-05-24T06:45:05;100099.53;;;13.89;50.74
61742;BME280;47650;49.848;9.620;2023-05-24T06:47:32;100090.13;;;14.21;49.67
61742;BME280;47650;49.848;9.620;2023-05-24T06:49:59;100097.53;;;13.47;50.50
61742;BME280;47650;49.848;9.620;2023-05-24T06:52:25;100018.00;;;13.52;50.37
61742;BME280;47650;49.848;9.620;2023-05-24T06:54:51;100065.91;;;14.14;50.09
61742;BME280;47650;49.848;9.620;2023-05-24T06:57:17;100060.66;;;14.04;48.46
61742;BME280;47650;49.848;9.620;2023-05-24T06:59:44;100086.81;;;14.27;48.61
61742;BME280;47650;49.848;9.620;2023-05-24T07:02:09;100066.72;;;14.41;47.08
61742;BME280;47650;49.848;9.620;2023-05-24T07:04:35;100074.03;;;14.65;47.03
61742;BME280;47650;49.848;9.620;2023-05-24T07:07:00;100045.78;;;14.54;45.60
61742;BME280;47650;49.848;9.620;2023-05-24T07:09:27;100029.16;;;14.60;46.07
61742;BME280;47650;49.848;9.620;2023-05-24T07:11:52;100115.13;;;15.31;44.01
61742;BME280;47650;49.848;9.620;2023-05-24T07:14:17;100098.97;;;15.49;43.83
61742;BME280;47650;49.848;9.620;2023-05-24T07:16:43;100097.31;;;14.89;45.78
61742;BME280;47650;49.848;9.620;2023-05-24T07:19:08;100068.50;;;15.01;45.21
61742;BME280;47650;49.848;9.620;2023-05-24T07:21:34;100103.19;;;15.01;44.46
61742;BME280;47650;49.848;9.620;2023-05-24T07:24:01;100095.63;;;15.72;44.59
61742;BME280;47650;49.848;9.620;2023-05-24T07:26:28;100098.34;;;14.96;45.94
61742;BME280;47650;49.848;9.620;2023-05-24T07:28:53;99952.16;;;14.31;46.48
61742;BME280;47650;49.848;9.620;2023-05-24T07:31:19;100092.81;;;15.73;44.81
61742;BME280;47650;49.848;9.620;2023-05-24T07:33:48;100094.06;;;15.20;43.79
61742;BME280;47650;49.848;9.620;2023-05-24T07:36:13;100092.63;;;15.42;44.46
61742;BME280;47650;49.848;9.620;2023-05-24T07:38:40;100089.09;;;16.32;44.30
61742;BME280;47650;49.848;9.620;2023-05-24T07:41:07;100095.69;;;15.80;42.94
61742;BME280;47650;49.848;9.620;2023-05-24T07:43:34;100066.72;;;16.64;42.23
61742;BME280;47650;49.848;9.620;2023-05-24T07:46:01;100064.94;;;16.96;40.35
61742;BME280;47650;49.848;9.620;2023-05-24T07:48:26;100064.09;;;16.96;40.49
61742;BME280;47650;49.848;9.620;2023-05-24T07:50:52;100087.78;;;16.11;41.32
61742;BME280;47650;49.848;9.620;2023-05-24T07:53:18;100098.78;;;16.81;41.40
61742;BME280;47650;49.848;9.620;2023-05-24T07:55:44;100086.97;;;17.84;40.47
61742;BME280;47650;49.848;9.620;2023-05-24T07:58:11;100062.31;;;17.80;38.70
61742;BME280;47650;49.848;9.620;2023-05-24T08:00:45;100106.31;;;17.94;37.94
61742;BME280;47650;49.848;9.620;2023-05-24T08:03:13;100036.22;;;18.27;38.22
61742;BME280;47650;49.848;9.620;2023-05-24T08:05:39;100016.88;;;18.02;37.85
61742;BME280;47650;49.848;9.620;2023-05-24T08:08:09;100103.94;;;16.51;40.36
61742;BME280;47650;49.848;9.620;2023-05-24T08:10:35;100054.16;;;17.36;40.03
61742;BME280;47650;49.848;9.620;2023-05-24T08:13:02;100089.38;;;17.47;41.46
61742;BME280;47650;49.848;9.620;2023-05-24T08:15:27;100084.28;;;18.96;38.71
61742;BME280;47650;49.848;9.620;2023-05-24T08:17:57;100092.25;;;18.45;37.14
61742;BME280;47650;49.848;9.620;2023-05-24T08:20:24;100089.84;;;19.16;36.03
61742;BME280;47650;49.848;9.620;2023-05-24T08:22:49;100053.25;;;18.49;35.86
61742;BME280;47650;49.848;9.620;2023-05-24T08:25:16;100038.59;;;18.96;35.46
61742;BME280;47650;49.848;9.620;2023-05-24T08:27:41;100101.94;;;19.42;35.00
61742;BME280;47650;49.848;9.620;2023-05-24T08:30:08;100103.09;;;19.98;32.28
61742;BME280;47650;49.848;9.620;2023-05-24T08:32:33;100098.63;;;20.12;32.54
61742;BME280;47650;49.848;9.620;2023-05-24T08:34:59;100098.94;;;21.00;32.04
61742;BME280;47650;49.848;9.620;2023-05-24T08:37:25;100073.88;;;19.30;32.03
61742;BME280;47650;49.848;9.620;2023-05-24T08:39:53;100093.50;;;20.52;30.90
61742;BME280;47650;49.848;9.620;2023-05-24T08:42:32;100106.88;;;20.66;31.35
61742;BME280;47650;49.848;9.620;2023-05-24T08:45:03;100034.91;;;21.15;29.86
61742;BME280;47650;49.848;9.620;2023-05-24T08:47:33;100087.50;;;22.40;29.75
61742;BME280;47650;49.848;9.620;2023-05-24T08:50:02;100087.72;;;22.31;27.17
61742;BME280;47650;49.848;9.620;2023-05-24T08:52:30;100087.72;;;22.38;28.46
61742;BME280;47650;49.848;9.620;2023-05-24T08:54:58;100082.13;;;22.91;28.21
61742;BME280;47650;49.848;9.620;2023-05-24T08:57:27;100059.13;;;22.76;27.85
61742;BME280;47650;49.848;9.620;2023-05-24T08:59:54;99996.75;;;22.12;27.89
61742;BME280;47650;49.848;9.620;2023-05-24T09:02:21;100065.69;;;22.08;28.12
61742;BME280;47650;49.848;9.620;2023-05-24T09:04:48;100080.47;;;22.90;27.21
61742;BME280;47650;49.848;9.620;2023-05-24T09:07:17;100074.03;;;22.91;27.07
61742;BME280;47650;49.848;9.620;2023-05-24T09:10:00;100070.91;;;22.88;25.61
61742;BME280;47650;49.848;9.620;2023-05-24T09:12:31;100032.38;;;22.54;25.72
61742;BME280;47650;49.848;9.620;2023-05-24T09:14:57;100078.03;;;23.27;25.07
61742;BME280;47650;49.848;9.620;2023-05-24T09:17:31;100076.56;;;23.89;25.85
61742;BME280;47650;49.848;9.620;2023-05-24T09:19:57;99997.31;;;22.86;25.17
61742;BME280;47650;49.848;9.620;2023-05-24T09:22:25;100073.00;;;24.13;25.60
61742;BME280;47650;49.848;9.620;2023-05-24T09:24:59;100084.09;;;23.87;26.13
61742;BME280;47650;49.848;9.620;2023-05-24T09:27:30;100060.63;;;23.49;25.65
61742;BME280;47650;49.848;9.620;2023-05-24T09:29:56;100065.34;;;23.85;25.40
61742;BME280;47650;49.848;9.620;2023-05-24T09:32:22;100074.63;;;23.71;25.92
61742;BME280;47650;49.848;9.620;2023-05-24T09:34:51;100075.56;;;23.19;26.22
61742;BME280;47650;49.848;9.620;2023-05-24T09:37:30;99989.75;;;21.57;27.53
61742;BME280;47650;49.848;9.620;2023-05-24T09:39:56;100020.84;;;22.13;26.94
61742;BME280;47650;49.848;9.620;2023-05-24T09:42:26;100056.13;;;22.25;27.40
61742;BME280;47650;49.848;9.620;2023-05-24T09:47:33;100083.16;;;21.85;28.64
61742;BME280;47650;49.848;9.620;2023-05-24T09:50:00;100080.88;;;22.09;28.13
61742;BME280;47650;49.848;9.620;2023-05-24T09:52:26;100077.31;;;21.48;27.33
61742;BME280;47650;49.848;9.620;2023-05-24T09:55:19;100099.75;;;21.55;28.46
61742;BME280;47650;49.848;9.620;2023-05-24T09:58:07;100089.81;;;21.89;27.75
61742;BME280;47650;49.848;9.620;2023-05-24T10:00:42;100061.56;;;22.05;27.75
61742;BME280;47650;49.848;9.620;2023-05-24T10:03:12;100021.28;;;21.57;28.92
61742;BME280;47650;49.848;9.620;2023-05-24T10:05:44;100095.38;;;22.21;28.05
61742;BME280;47650;49.848;9.620;2023-05-24T10:08:11;100092.50;;;22.29;27.48
61742;BME280;47650;49.848;9.620;2023-05-24T10:10:38;100103.94;;;21.65;27.99
61742;BME280;47650;49.848;9.620;2023-05-24T10:13:09;100108.47;;;19.98;29.87
61742;BME280;47650;49.848;9.620;2023-05-24T10:15:36;100080.03;;;21.55;28.64
61742;BME280;47650;49.848;9.620;2023-05-24T10:18:02;100027.28;;;21.99;28.54
61742;BME280;47650;49.848;9.620;2023-05-24T10:20:32;100085.91;;;23.61;26.48
61742;BME280;47650;49.848;9.620;2023-05-24T10:23:17;100079.50;;;23.80;25.58
61742;BME280;47650;49.848;9.620;2023-05-24T10:25:49;100013.66;;;25.28;23.21
61742;BME280;47650;49.848;9.620;2023-05-24T10:28:19;100081.25;;;22.98;25.77
61742;BME280;47650;49.848;9.620;2023-05-24T10:33:21;100055.66;;;27.48;21.02
61742;BME280;47650;49.848;9.620;2023-05-24T10:35:48;100041.56;;;28.63;18.85
61742;BME280;47650;49.848;9.620;2023-05-24T10:38:15;100045.09;;;29.68;18.63
61742;BME280;47650;49.848;9.620;2023-05-24T10:40:44;100040.25;;;30.23;17.93
61742;BME280;47650;49.848;9.620;2023-05-24T10:43:11;100047.84;;;30.10;18.38
61742;BME280;47650;49.848;9.620;2023-05-24T10:45:39;100036.69;;;30.65;18.03
61742;BME280;47650;49.848;9.620;2023-05-24T10:50:42;99991.31;;;33.81;14.78
61742;BME280;47650;49.848;9.620;2023-05-24T10:53:16;100014.31;;;37.19;13.77
61742;BME280;47650;49.848;9.620;2023-05-24T10:55:56;100014.03;;;37.52;11.91
61742;BME280;47650;49.848;9.620;2023-05-24T11:01:25;100031.81;;;29.17;17.18
61742;BME280;47650;49.848;9.620;2023-05-24T11:03:52;100001.34;;;32.38;15.10
61742;BME280;47650;49.848;9.620;2023-05-24T11:06:48;100015.31;;;34.00;13.86
61742;BME280;47650;49.848;9.620;2023-05-24T11:09:16;100009.69;;;35.67;12.78
61742;BME280;47650;49.848;9.620;2023-05-24T11:11:58;100022.28;;;34.64;13.81
61742;BME280;47650;49.848;9.620;2023-05-24T11:14:27;100009.50;;;34.93;13.39
61742;BME280;47650;49.848;9.620;2023-05-24T11:16:53;100013.47;;;34.62;14.38
61742;BME280;47650;49.848;9.620;2023-05-24T11:19:21;100011.19;;;36.48;12.16
61742;BME280;47650;49.848;9.620;2023-05-24T11:21:52;99985.63;;;37.92;10.55
61742;BME280;47650;49.848;9.620;2023-05-24T11:24:25;100013.84;;;33.14;13.72
61742;BME280;47650;49.848;9.620;2023-05-24T11:27:01;100010.41;;;34.45;14.20
61742;BME280;47650;49.848;9.620;2023-05-24T11:29:27;99995.81;;;36.56;11.99
61742;BME280;47650;49.848;9.620;2023-05-24T11:31:55;99999.00;;;36.99;11.75
61742;BME280;47650;49.848;9.620;2023-05-24T11:34:45;99981.59;;;38.90;10.90
61742;BME280;47650;49.848;9.620;2023-05-24T11:37:11;99983.44;;;37.80;11.06
61742;BME280;47650;49.848;9.620;2023-05-24T11:39:37;99965.56;;;39.96;9.87
61742;BME280;47650;49.848;9.620;2023-05-24T11:42:04;99960.53;;;39.80;10.29
61742;BME280;47650;49.848;9.620;2023-05-24T11:44:30;99968.59;;;41.63;9.23
61742;BME280;47650;49.848;9.620;2023-05-24T11:46:57;99928.50;;;38.05;10.23
61742;BME280;47650;49.848;9.620;2023-05-24T11:49:24;100001.44;;;33.51;13.80
61742;BME280;47650;49.848;9.620;2023-05-24T11:51:57;99990.56;;;32.62;15.41
61742;BME280;47650;49.848;9.620;2023-05-24T11:54:26;99992.59;;;32.36;15.86
61742;BME280;47650;49.848;9.620;2023-05-24T11:56:52;99996.75;;;32.02;16.61
61742;BME280;47650;49.848;9.620;2023-05-24T11:59:23;99986.69;;;32.58;15.71
61742;BME280;47650;49.848;9.620;2023-05-24T12:02:01;99980.31;;;33.17;14.16
61742;BME280;47650;49.848;9.620;2023-05-24T12:04:32;99968.47;;;37.04;12.59
61742;BME280;47650;49.848;9.620;2023-05-24T12:06:58;99970.91;;;36.83;11.28
61742;BME280;47650;49.848;9.620;2023-05-24T12:09:25;99971.25;;;37.81;11.22
61742;BME280;47650;49.848;9.620;2023-05-24T12:11:51;99944.34;;;41.05;9.29
61742;BME280;47650;49.848;9.620;2023-05-24T12:14:28;99949.38;;;42.32;7.99
61742;BME280;47650;49.848;9.620;2023-05-24T12:16:57;99950.81;;;42.66;7.99
61742;BME280;47650;49.848;9.620;2023-05-24T12:19:23;99953.72;;;42.98;7.67
61742;BME280;47650;49.848;9.620;2023-05-24T12:21:56;99945.44;;;43.46;7.42
61742;BME280;47650;49.848;9.620;2023-05-24T12:24:24;99958.44;;;43.26;7.81
61742;BME280;47650;49.848;9.620;2023-05-24T12:26:50;99952.91;;;43.42;6.89
61742;BME280;47650;49.848;9.620;2023-05-24T12:29:26;99951.69;;;43.11;8.08
61742;BME280;47650;49.848;9.620;2023-05-24T12:31:56;99957.63;;;42.28;7.79
61742;BME280;47650;49.848;9.620;2023-05-24T12:34:23;99948.22;;;43.62;6.58
61742;BME280;47650;49.848;9.620;2023-05-24T12:36:49;99952.81;;;41.42;7.53
61742;BME280;47650;49.848;9.620;2023-05-24T12:39:22;99940.94;;;42.97;7.89
61742;BME280;47650;49.848;9.620;2023-05-24T12:41:52;99917.22;;;37.84;9.97
61742;BME280;47650;49.848;9.620;2023-05-24T12:44:24;99958.63;;;38.06;9.79
61742;BME280;47650;49.848;9.620;2023-05-24T12:46:57;99945.00;;;40.69;8.58
61742;BME280;47650;49.848;9.620;2023-05-24T12:49:25;99925.34;;;37.80;10.26
61742;BME280;47650;49.848;9.620;2023-05-24T12:51:52;99942.47;;;39.65;9.15
61742;BME280;47650;49.848;9.620;2023-05-24T12:54:21;99925.09;;;41.00;9.01
61742;BME280;47650;49.848;9.620;2023-05-24T12:56:47;99879.41;;;42.77;7.42
61742;BME280;47650;49.848;9.620;2023-05-24T12:59:14;99925.56;;;43.47;7.87
61742;BME280;47650;49.848;9.620;2023-05-24T13:01:40;99918.25;;;43.43;7.48
61742;BME280;47650;49.848;9.620;2023-05-24T13:04:08;99916.66;;;39.26;9.56
61742;BME280;47650;49.848;9.620;2023-05-24T13:06:35;99914.47;;;41.85;7.65
61742;BME280;47650;49.848;9.620;2023-05-24T13:09:02;99904.69;;;40.96;7.58
61742;BME280;47650;49.848;9.620;2023-05-24T13:11:31;99913.19;;;41.12;7.56
61742;BME280;47650;49.848;9.620;2023-05-24T13:13:57;99840.06;;;41.98;7.67
61742;BME280;47650;49.848;9.620;2023-05-24T13:16:23;99891.38;;;40.47;7.64
61742;BME280;47650;49.848;9.620;2023-05-24T13:18:53;99857.31;;;39.01;8.45
61742;BME280;47650;49.848;9.620;2023-05-24T13:21:19;99917.16;;;41.23;8.21